Bookmark and Share
Track history (hours):
 

Sinegorsk

Last reported at 2014-Apr-21 03:33 UTC. Time now 2014-Apr-21 15:11 UTC.
Position N 59°52' E 030°13'.

Length 133 m; draft 6.1 m.

Type: Cargo ship. MMSI: 576292000.

NotesDate/timePositionNaut miles runAvg speedWind from/ knotsBaromVisibWave heightAir tempDewpointWater temp
2014-Apr-21 03:33N 59°52' E 030°13'2 1.7
2014-Apr-21 02:33N 59°53' E 030°11'98 5.7
2014-Apr-20 09:20N 59°58' E 026°56'911.5
2014-Apr-20 08:33N 59°59' E 026°38'4811.5
2014-Apr-20 04:25N 59°48' E 025°06'1011.5
2014-Apr-20 03:33N 59°45' E 024°47'1111.5
2014-Apr-20 02:33N 59°43' E 024°24'1211.6
2014-Apr-20 01:33N 59°40' E 024°02'1211.6
2014-Apr-20 00:33N 59°36' E 023°40'1211.8
2014-Apr-19 23:33N 59°33' E 023°18'28111.2
2014-Apr-18 22:25N 56°13' E 017°08'1011.1
2014-Apr-18 21:33N 56°07' E 016°54'1111.2
2014-Apr-18 20:33N 56°00' E 016°38'1111.1
2014-Apr-18 19:33N 55°55' E 016°21'1411.1
2014-Apr-18 18:18N 55°48' E 015°59'3311.2
2014-Apr-18 15:22N 55°33' E 015°08'910.9
2014-Apr-18 14:33N 55°28' E 014°54'1111.0
2014-Apr-18 13:33N 55°23' E 014°38'1111.1
2014-Apr-18 12:33N 55°14' E 014°25'1010.1
2014-Apr-18 11:33N 55°10' E 014°09'1111.1
2014-Apr-18 10:33N 55°10' E 013°50'1111.2
2014-Apr-18 09:33N 55°12' E 013°30'1111.4
2014-Apr-18 08:33N 55°13' E 013°10'1111.4
2014-Apr-18 07:33N 55°15' E 012°51'9 8.4
2014-Apr-18 06:32N 55°20' E 012°38'1111.5
2014-Apr-18 05:33N 55°31' E 012°42'1110.9
2014-Apr-18 04:33N 55°42' E 012°41'1010.3
2014-Apr-18 03:33N 55°52' E 012°40'1010.4
2014-Apr-18 02:33N 56°03' E 012°39'1211.7
2014-Apr-18 01:33N 56°10' E 012°23'1211.8
2014-Apr-18 00:33N 56°17' E 012°05'1411.8
2014-Apr-17 23:22N 56°30' E 011°58'1011.8
2014-Apr-17 22:32N 56°40' E 011°54'1111.6
2014-Apr-17 21:33N 56°51' E 011°48'1410.8
2014-Apr-17 20:19N 57°03' E 011°40'810.6
2014-Apr-17 19:33N 57°11' E 011°35'1110.6
2014-Apr-17 18:33N 57°21' E 011°28'1110.7
2014-Apr-17 17:33N 57°30' E 011°19'1111.1
2014-Apr-17 16:33N 57°38' E 011°03'1110.8
2014-Apr-17 15:33N 57°43' E 010°46'9 9.4
2014-Apr-17 14:33N 57°47' E 010°30'1413.5
2014-Apr-17 13:33N 57°42' E 010°07'4513.2
2014-Apr-17 10:09N 57°23' E 008°51'3512.4
2014-Apr-17 07:21N 56°58' E 008°05'2312.7
2014-Apr-17 05:30N 56°38' E 007°42'12212.2
2014-Apr-16 19:31N 54°56' E 005°47'12411.3
2014-Apr-16 08:32N 53°18' E 003°36'1110.7
2014-Apr-16 07:32N 53°08' E 003°30'3311.3
2014-Apr-16 04:33N 52°34' E 003°28'1212.1
2014-Apr-16 03:33N 52°22' E 003°27'1212.3
2014-Apr-16 02:32N 52°12' E 003°15'7 6.1
2014-Apr-16 01:25N 52°07' E 003°08'0 0.4
2014-Apr-16 00:31N 52°07' E 003°08'21 6.7
2014-Apr-15 21:22N 51°48' E 002°53'1011.8
2014-Apr-15 20:34N 51°45' E 003°08'9 9.2
2014-Apr-15 19:33N 51°40' E 003°20'1010.4
2014-Apr-15 18:33N 51°30' E 003°27'10 9.7
2014-Apr-15 17:33N 51°28' E 003°42'1 0.6
2014-Apr-15 16:30N 51°29' E 003°42'0 0.0
2014-Apr-15 15:33N 51°29' E 003°42'0 0.0
2014-Apr-15 14:31N 51°29' E 003°42'0 0.0
2014-Apr-15 12:32N 51°29' E 003°42'0 0.0
2014-Apr-15 11:33N 51°29' E 003°42'0 0.0
2014-Apr-15 10:33N 51°29' E 003°42'0 0.0
2014-Apr-15 09:34N 51°29' E 003°42'0 0.0
2014-Apr-15 08:32N 51°29' E 003°42'0 0.0
2014-Apr-15 07:32N 51°29' E 003°42'0 0.0
2014-Apr-15 06:33N 51°29' E 003°42'0 0.0
2014-Apr-15 05:33N 51°29' E 003°42'0 0.0
2014-Apr-15 03:32N 51°29' E 003°42'0 0.0
2014-Apr-15 02:32N 51°29' E 003°42'0 0.0
2014-Apr-15 01:30N 51°29' E 003°42'0 0.0
2014-Apr-15 00:33N 51°29' E 003°42'0 0.0
2014-Apr-14 23:31N 51°29' E 003°42'0 0.0
2014-Apr-14 22:32N 51°29' E 003°42'0 0.0
2014-Apr-14 21:32N 51°29' E 003°42'0 0.0
2014-Apr-14 20:33N 51°29' E 003°42'0 0.0
2014-Apr-14 19:33N 51°29' E 003°42'0 0.0
2014-Apr-14 18:31N 51°29' E 003°42'0 0.0
2014-Apr-14 17:32N 51°29' E 003°42'0 0.0
2014-Apr-14 16:32N 51°29' E 003°42'0 0.0
2014-Apr-14 15:33N 51°29' E 003°42'0 0.0
2014-Apr-14 14:33N 51°29' E 003°42'0 0.0
2014-Apr-14 13:31N 51°29' E 003°42'0 0.0
2014-Apr-14 11:32N 51°29' E 003°42'0 0.0
2014-Apr-14 10:33N 51°29' E 003°42'0 0.0
2014-Apr-14 08:31N 51°29' E 003°42'0 0.0
2014-Apr-14 07:32N 51°29' E 003°42'0 0.0
2014-Apr-14 06:32N 51°29' E 003°42'0 0.0
2014-Apr-14 05:33N 51°29' E 003°42'0 0.0
2014-Apr-13 22:32N 51°29' E 003°42'0 0.0
2014-Apr-13 21:33N 51°29' E 003°42'4 3.9
2014-Apr-13 20:34N 51°26' E 003°37'1211.7
2014-Apr-13 19:33N 51°24' E 003°19'1111.2
2014-Apr-13 18:34N 51°24' E 003°01'1111.0
2014-Apr-13 17:34N 51°22' E 002°44'6 5.3
2014-Apr-13 16:29N 51°24' E 002°36'0 0.1
2014-Apr-13 15:32N 51°24' E 002°36'0 0.0
2014-Apr-13 14:33N 51°24' E 002°36'0 0.0
2014-Apr-13 13:31N 51°24' E 002°36'0 0.0
2014-Apr-13 12:31N 51°24' E 002°36'0 0.0
2014-Apr-13 11:32N 51°24' E 002°36'0 0.0
2014-Apr-13 10:33N 51°24' E 002°36'0 0.1
2014-Apr-13 09:33N 51°24' E 002°36'0 0.1
2014-Apr-13 08:31N 51°24' E 002°36'0 0.0
2014-Apr-13 07:32N 51°24' E 002°35'0 0.0
2014-Apr-13 06:32N 51°24' E 002°35'0 0.0
2014-Apr-13 05:33N 51°24' E 002°35'0 0.0
2014-Apr-13 04:31N 51°24' E 002°36'0 0.1
2014-Apr-13 03:31N 51°24' E 002°36'0 0.0
2014-Apr-13 02:32N 51°24' E 002°36'0 0.0
2014-Apr-13 01:33N 51°24' E 002°36'0 0.0
2014-Apr-13 00:33N 51°24' E 002°36'0 0.0
2014-Apr-12 23:31N 51°24' E 002°36'0 0.0
2014-Apr-12 22:32N 51°24' E 002°36'0 0.0
2014-Apr-12 21:32N 51°24' E 002°36'0 0.1
2014-Apr-12 20:33N 51°24' E 002°36'0 0.0
2014-Apr-12 19:31N 51°24' E 002°35'0 0.0
2014-Apr-12 18:31N 51°24' E 002°35'0 0.1
2014-Apr-12 17:23N 51°24' E 002°36'0 0.1
2014-Apr-12 16:33N 51°24' E 002°36'0 0.0
2014-Apr-12 15:33N 51°24' E 002°36'0 0.0
2014-Apr-12 14:31N 51°24' E 002°36'0 0.0
2014-Apr-12 13:32N 51°24' E 002°36'0 0.0
2014-Apr-12 12:29N 51°24' E 002°36'0 0.0
2014-Apr-12 11:30N 51°24' E 002°36'0 0.0
2014-Apr-12 10:31N 51°24' E 002°36'0 0.0
2014-Apr-12 09:31N 51°24' E 002°36'0 0.1
2014-Apr-12 08:29N 51°24' E 002°36'0 0.1
2014-Apr-12 07:33N 51°24' E 002°35'0 0.0
2014-Apr-12 06:33N 51°24' E 002°35'0 0.0
2014-Apr-12 05:28N 51°24' E 002°35'0 0.0
2014-Apr-12 04:32N 51°24' E 002°35'0 0.1
2014-Apr-12 03:32N 51°24' E 002°35'0 0.0
2014-Apr-12 02:33N 51°24' E 002°35'0 0.0
2014-Apr-12 01:31N 51°24' E 002°36'0 0.0
2014-Apr-12 00:31N 51°24' E 002°36'0 0.0
2014-Apr-11 23:32N 51°24' E 002°36'0 0.0
2014-Apr-11 22:33N 51°24' E 002°36'0 0.1
2014-Apr-11 21:33N 51°24' E 002°35'0 0.0
2014-Apr-11 20:28N 51°24' E 002°35'0 0.0
2014-Apr-11 19:32N 51°24' E 002°35'0 0.0
2014-Apr-11 18:32N 51°24' E 002°35'0 0.0
2014-Apr-11 17:24N 51°24' E 002°35'0 0.0
2014-Apr-11 16:31N 51°24' E 002°35'0 0.0
2014-Apr-11 15:31N 51°24' E 002°35'0 0.0
2014-Apr-11 14:32N 51°24' E 002°35'0 0.1
2014-Apr-11 13:33N 51°24' E 002°35'3 3.2
2014-Apr-11 12:33N 51°22' E 002°32'1312.4
2014-Apr-11 11:32N 51°16' E 002°14'1313.5
2014-Apr-11 10:33N 51°09' E 001°56'7 7.4
2014-Apr-11 09:33N 51°03' E 001°50'10 9.9
2014-Apr-11 08:32N 51°03' E 002°06'10 9.7
2014-Apr-11 07:34N 51°03' E 002°21'1 0.7
2014-Apr-11 06:33N 51°03' E 002°21'0 0.0
2014-Apr-11 05:33N 51°03' E 002°21'0 0.0
2014-Apr-11 04:31N 51°03' E 002°21'  

Dump ship's entire track history

sailing weather and tide predictions

Sinegorsk — YJRC5 — position and weather